Airport details for: LTAC (Turkey)

Metar

LTAC 221750Z VRB02KT 9999 SCT040 18/12 Q1018 NOSIG

General details

ICAO: LTAC
IATA: ESB
Name (city): Esenboga
Major:
Country: Turkey
vACC: vACC Turkey
Description:
Scenery links:
FS9 scenery:
FSX/P3D scenery:
XP scenery:
Elevation: 3125 ft.
Transition altitude: 10000 ft.
MSA: 12300 ft.
Latitude: 40.128056
Longitude: 32.995
LTAC Charts
LTAC Notams
LTAC Online stations

Runways

Number Course Length Elevation Lat Lon ILS ILS freq ILS FAC GP
03L 32° 11155ft / 3400 m 3100ft 40.117772 32.983664 108.9 32° 3.0°
03R 32° 12303ft / 3750 m 3097ft 40.114058 32.983178 110.3 32° 3.0°
21L 212° 12303ft / 3750 m 3125ft 40.141331 33.009164 108.1 212° 3.0°
21R 212° 11155ft / 3400 m 3123ft 40.142447 33.007178 108.3 212° 3.0°